createdAt,value
2018-11-05T00:01:53.577Z,85.40
2018-11-05T00:04:28.877Z,85.70
2018-11-05T00:06:57.342Z,84.50
2018-11-05T00:09:25.740Z,86.30
2018-11-05T00:11:54.203Z,85.50
2018-11-05T00:14:22.632Z,86.00
2018-11-05T00:16:50.977Z,87.50
2018-11-05T00:19:19.356Z,86.90
2018-11-05T00:21:47.768Z,85.20
2018-11-05T00:24:16.274Z,84.60
2018-11-05T00:26:44.962Z,86.00
2018-11-05T00:29:13.832Z,85.60
2018-11-05T00:31:42.817Z,88.20
2018-11-05T00:34:11.418Z,86.40
2018-11-05T00:36:39.864Z,86.00
2018-11-05T00:39:10.488Z,85.80
2018-11-05T00:41:39.670Z,85.50
2018-11-05T00:44:08.303Z,83.00
2018-11-05T00:46:37.148Z,84.60
2018-11-05T00:49:06.093Z,86.20
2018-11-05T00:51:35.114Z,86.20
2018-11-05T00:54:03.814Z,86.50
2018-11-05T00:56:32.620Z,87.30
2018-11-05T00:59:01.102Z,88.50
2018-11-05T01:01:29.576Z,87.80
2018-11-05T01:03:58.373Z,89.50
2018-11-05T01:06:26.827Z,89.40
2018-11-05T01:08:55.233Z,87.40
2018-11-05T01:11:23.750Z,86.20
2018-11-05T01:13:52.192Z,84.90
2018-11-05T01:16:20.639Z,86.60
2018-11-05T01:18:49.223Z,88.00
2018-11-05T01:21:17.875Z,87.60
2018-11-05T01:23:46.634Z,88.10
2018-11-05T01:26:15.083Z,89.40
2018-11-05T01:28:43.593Z,90.00
2018-11-05T01:31:12.784Z,87.90
2018-11-05T01:33:41.204Z,86.50
2018-11-05T01:36:10.135Z,87.50
2018-11-05T01:38:38.665Z,86.90
2018-11-05T01:41:07.007Z,88.00
2018-11-05T01:43:35.462Z,87.50
2018-11-05T01:46:04.901Z,89.10
2018-11-05T01:48:33.321Z,90.10
2018-11-05T01:51:01.875Z,86.60
2018-11-05T01:53:30.614Z,88.60
2018-11-05T01:55:59.098Z,90.20
2018-11-05T01:58:27.866Z,90.60
2018-11-05T02:00:56.608Z,90.60
2018-11-05T02:03:25.546Z,88.60
2018-11-05T02:05:53.945Z,90.00
2018-11-05T02:08:22.387Z,89.00
2018-11-05T02:10:50.807Z,87.10
2018-11-05T02:13:19.286Z,85.40
2018-11-05T02:15:47.928Z,86.20
2018-11-05T02:18:16.279Z,87.00
2018-11-05T02:20:45.016Z,88.30
2018-11-05T02:23:13.454Z,88.40
2018-11-05T02:25:41.839Z,88.90
2018-11-05T02:28:10.267Z,89.40
2018-11-05T02:30:38.713Z,89.60
2018-11-05T02:33:07.337Z,90.10
2018-11-05T02:35:35.767Z,89.70
2018-11-05T02:38:04.581Z,87.30
2018-11-05T02:40:33.556Z,87.90
2018-11-05T02:43:02.577Z,88.10
2018-11-05T02:45:31.519Z,88.70
2018-11-05T02:48:00.379Z,89.10
2018-11-05T02:50:28.768Z,90.10
2018-11-05T02:52:57.168Z,90.90
2018-11-05T02:55:25.572Z,90.40
2018-11-05T02:57:54.237Z,90.60
2018-11-05T03:00:22.882Z,91.10
2018-11-05T03:02:51.772Z,91.00
2018-11-05T03:05:20.367Z,90.40
2018-11-05T03:07:49.417Z,91.20
2018-11-05T03:10:17.914Z,90.50
2018-11-05T03:12:47.290Z,90.50
2018-11-05T03:15:17.341Z,88.90
2018-11-05T03:17:45.981Z,87.60
2018-11-05T03:20:15.090Z,88.80
2018-11-05T03:22:44.184Z,87.60
2018-11-05T03:25:12.592Z,86.20
2018-11-05T03:27:41.311Z,86.70
2018-11-05T03:30:12.509Z,86.70
2018-11-05T03:32:40.931Z,87.70
2018-11-05T03:35:10.627Z,88.80
2018-11-05T03:37:40.072Z,89.90
2018-11-05T03:40:09.779Z,88.60
2018-11-05T03:42:39.282Z,86.70
2018-11-05T03:45:09.319Z,85.80
2018-11-05T03:47:37.876Z,85.00
2018-11-05T03:50:10.537Z,87.00
2018-11-05T03:52:38.988Z,89.60
2018-11-05T03:55:07.799Z,90.30
2018-11-05T03:57:36.391Z,89.60
2018-11-05T04:00:06.720Z,90.30
2018-11-05T04:02:35.751Z,90.70
2018-11-05T04:05:05.351Z,90.30
2018-11-05T04:07:34.067Z,90.30
2018-11-05T04:10:02.748Z,90.30
2018-11-05T04:12:31.269Z,89.00
2018-11-05T04:15:00.024Z,86.60
2018-11-05T04:17:28.575Z,88.80
2018-11-05T04:19:56.991Z,89.20
2018-11-05T04:22:25.666Z,90.20
2018-11-05T04:24:54.429Z,90.10
2018-11-05T04:27:23.057Z,90.70
2018-11-05T04:29:51.456Z,91.90
2018-11-05T04:32:20.405Z,90.80
2018-11-05T04:34:48.886Z,91.30
2018-11-05T04:37:17.343Z,90.40
2018-11-05T04:39:46.046Z,90.40
2018-11-05T04:42:14.472Z,90.00
2018-11-05T04:44:43.139Z,90.80
2018-11-05T04:47:11.524Z,89.40
2018-11-05T04:49:40.109Z,89.20
2018-11-05T04:52:08.560Z,89.80
2018-11-05T04:54:36.975Z,90.80
2018-11-05T04:57:05.456Z,91.10
2018-11-05T04:59:33.797Z,90.90
2018-11-05T05:02:02.209Z,91.20
2018-11-05T05:04:30.623Z,90.90
2018-11-05T05:07:00.188Z,91.80
2018-11-05T05:09:28.841Z,92.20
2018-11-05T05:11:57.272Z,91.60
2018-11-05T05:14:25.698Z,92.40
2018-11-05T05:16:54.480Z,92.40
2018-11-05T05:19:25.941Z,92.10
2018-11-05T05:21:54.452Z,91.70
2018-11-05T05:24:23.172Z,90.30
2018-11-05T05:26:51.799Z,90.50
2018-11-05T05:29:20.249Z,91.70
2018-11-05T05:31:48.618Z,91.70
2018-11-05T05:34:18.132Z,91.80
2018-11-05T05:36:46.563Z,92.00
2018-11-05T05:39:15.587Z,91.80
2018-11-05T05:41:44.425Z,91.50
2018-11-05T05:44:12.844Z,92.40
2018-11-05T05:46:41.379Z,91.90
2018-11-05T05:49:10.236Z,91.70
2018-11-05T05:51:39.119Z,91.20
2018-11-05T05:54:07.848Z,91.30
2018-11-05T05:56:37.025Z,90.90
2018-11-05T05:59:05.780Z,91.90
2018-11-05T06:01:34.213Z,92.20
2018-11-05T06:04:03.368Z,92.30
2018-11-05T06:06:32.243Z,92.60
2018-11-05T06:09:00.810Z,93.30
2018-11-05T06:11:29.722Z,93.20
2018-11-05T06:13:58.663Z,92.80
2018-11-05T06:16:27.147Z,92.70
2018-11-05T06:18:55.754Z,92.30
2018-11-05T06:21:25.509Z,92.80
2018-11-05T06:23:54.070Z,93.00
2018-11-05T06:26:22.648Z,93.40
2018-11-05T06:28:51.118Z,93.00
2018-11-05T06:31:21.533Z,92.70
2018-11-05T06:33:49.930Z,92.40
2018-11-05T06:36:18.397Z,92.80
2018-11-05T06:38:46.856Z,92.60
2018-11-05T06:41:15.244Z,92.50
2018-11-05T06:43:43.957Z,92.10
2018-11-05T06:46:12.866Z,91.70
2018-11-05T06:48:41.438Z,91.70
2018-11-05T06:51:10.136Z,91.90
2018-11-05T06:53:38.845Z,91.20
2018-11-05T06:56:07.531Z,91.70
2018-11-05T06:58:35.927Z,91.00
2018-11-05T07:01:04.993Z,91.10
2018-11-05T07:03:33.472Z,90.80
2018-11-05T07:06:02.342Z,90.50
2018-11-05T07:08:31.072Z,90.80
2018-11-05T07:10:59.889Z,91.10
2018-11-05T07:13:28.419Z,91.30
2018-11-05T07:15:56.966Z,91.60
2018-11-05T07:18:25.497Z,91.50
2018-11-05T07:20:53.962Z,91.50
2018-11-05T07:23:22.429Z,91.80
2018-11-05T07:25:51.080Z,91.80
2018-11-05T07:28:19.630Z,91.40
2018-11-05T07:30:47.977Z,91.80
2018-11-05T07:33:16.479Z,91.50
2018-11-05T07:35:44.773Z,91.60
2018-11-05T07:38:13.136Z,92.10
2018-11-05T07:40:41.598Z,92.30
2018-11-05T07:43:10.347Z,91.50
2018-11-05T07:45:38.939Z,91.20
2018-11-05T07:48:07.705Z,90.90
2018-11-05T07:50:36.141Z,90.50
2018-11-05T07:53:05.574Z,90.10
2018-11-05T07:55:34.059Z,88.40
2018-11-05T07:58:02.901Z,88.10
2018-11-05T08:00:36.980Z,87.10
2018-11-05T08:03:06.287Z,87.20
2018-11-05T08:05:34.754Z,88.70
2018-11-05T08:08:05.226Z,87.70
2018-11-05T08:10:33.624Z,87.50
2018-11-05T08:13:02.079Z,89.30
2018-11-05T08:15:30.603Z,90.00
2018-11-05T08:17:59.279Z,90.00
2018-11-05T08:20:27.774Z,90.50
2018-11-05T08:22:56.478Z,90.40
2018-11-05T08:25:25.149Z,88.90
2018-11-05T08:27:53.779Z,87.20
2018-11-05T08:30:23.366Z,86.50
2018-11-05T08:32:52.088Z,86.80
2018-11-05T08:35:20.533Z,85.30
2018-11-05T08:37:49.778Z,85.50
2018-11-05T08:40:21.673Z,85.20
2018-11-05T08:42:50.860Z,83.20
2018-11-05T08:45:20.467Z,81.90
2018-11-05T08:47:48.957Z,81.10
2018-11-05T08:50:18.356Z,79.50
2018-11-05T08:52:46.748Z,78.30
2018-11-05T08:55:19.088Z,78.40
2018-11-05T08:57:47.929Z,78.20
2018-11-05T09:00:23.079Z,78.80
2018-11-05T09:02:52.157Z,79.90
2018-11-05T09:05:21.086Z,77.20
2018-11-05T09:07:50.615Z,76.10
2018-11-05T09:10:19.093Z,76.00
2018-11-05T09:12:47.535Z,76.10
2018-11-05T09:15:18.161Z,75.40
2018-11-05T09:17:47.286Z,76.90
2018-11-05T09:20:16.561Z,77.70
2018-11-05T09:22:45.436Z,77.50
2018-11-05T09:25:14.685Z,77.50
2018-11-05T09:27:43.152Z,76.10
2018-11-05T09:30:16.590Z,75.80
2018-11-05T09:32:45.472Z,75.90
2018-11-05T09:35:14.066Z,74.80
2018-11-05T09:37:42.837Z,74.20
2018-11-05T09:40:14.167Z,74.30
2018-11-05T09:42:43.353Z,74.60
2018-11-05T09:45:15.050Z,75.90
2018-11-05T09:47:44.094Z,75.40
2018-11-05T09:50:12.710Z,76.00
2018-11-05T09:52:41.123Z,75.10
2018-11-05T09:55:11.018Z,74.70
2018-11-05T09:57:39.522Z,74.70
2018-11-05T10:00:12.048Z,73.90
2018-11-05T10:04:49.015Z,72.10
2018-11-05T10:07:17.265Z,72.20
2018-11-05T10:09:45.842Z,71.30
2018-11-05T10:12:14.307Z,71.60
2018-11-05T10:14:42.740Z,71.30
2018-11-05T10:17:11.484Z,70.50
2018-11-05T10:19:40.537Z,70.40
2018-11-05T10:22:09.311Z,70.70
2018-11-05T10:24:37.849Z,70.50
2018-11-05T10:27:06.299Z,70.10
2018-11-05T10:29:34.920Z,70.00
2018-11-05T10:32:03.638Z,70.00
2018-11-05T10:34:32.068Z,70.20
2018-11-05T10:37:00.810Z,69.70
2018-11-05T10:39:29.760Z,69.00
2018-11-05T10:41:58.243Z,68.60
2018-11-05T10:44:27.028Z,67.20
2018-11-05T10:46:55.385Z,66.70
2018-11-05T10:49:23.851Z,67.20
2018-11-05T10:51:53.190Z,67.20
2018-11-05T10:54:21.607Z,68.00
2018-11-05T10:56:50.173Z,67.10
2018-11-05T10:59:18.835Z,67.30
2018-11-05T11:01:53.083Z,65.10
2018-11-05T11:04:27.264Z,64.50
2018-11-05T11:06:55.768Z,63.10
2018-11-05T11:09:24.241Z,62.30
2018-11-05T11:11:53.564Z,61.10
2018-11-05T11:14:22.117Z,61.50
2018-11-05T11:16:50.756Z,61.20
2018-11-05T11:19:19.107Z,60.00
2018-11-05T11:21:48.026Z,60.00
2018-11-05T11:24:17.413Z,60.30
2018-11-05T11:26:46.101Z,60.30
2018-11-05T11:29:14.774Z,59.20
2018-11-05T11:31:43.500Z,59.60
2018-11-05T11:34:12.270Z,59.40
2018-11-05T11:36:41.027Z,58.60
2018-11-05T11:39:11.271Z,59.20
2018-11-05T11:41:40.065Z,59.90
2018-11-05T11:44:08.573Z,59.90
2018-11-05T11:48:58.767Z,59.20
2018-11-05T11:51:27.227Z,59.40
2018-11-05T11:53:56.504Z,59.50
2018-11-05T11:56:25.052Z,59.30
2018-11-05T11:58:53.771Z,59.20
2018-11-05T12:01:22.243Z,58.00
2018-11-05T12:03:50.696Z,58.60
2018-11-05T12:06:20.317Z,57.50
2018-11-05T12:08:49.060Z,57.60
2018-11-05T12:11:17.949Z,57.90
2018-11-05T12:13:46.430Z,57.80
2018-11-05T12:16:15.240Z,58.50
2018-11-05T12:18:44.728Z,58.00
2018-11-05T12:21:13.478Z,58.00
2018-11-05T12:23:42.659Z,58.00
2018-11-05T12:26:11.558Z,58.50
2018-11-05T12:28:40.290Z,57.90
2018-11-05T12:31:08.754Z,57.70
2018-11-05T12:33:37.251Z,56.20
2018-11-05T12:36:06.485Z,55.50
2018-11-05T12:38:35.139Z,55.20
2018-11-05T12:41:04.256Z,54.40
2018-11-05T12:43:32.713Z,54.10
2018-11-05T12:46:01.129Z,54.80
2018-11-05T12:48:29.595Z,52.30
2018-11-05T12:50:58.388Z,53.10
2018-11-05T12:53:27.130Z,52.90
2018-11-05T12:55:56.144Z,52.40
2018-11-05T12:58:24.879Z,51.10
2018-11-05T13:00:53.332Z,52.20
2018-11-05T13:03:22.041Z,51.50
2018-11-05T13:05:50.497Z,52.00
2018-11-05T13:08:19.077Z,51.80
2018-11-05T13:10:47.833Z,51.70
2018-11-05T13:13:16.192Z,49.90
2018-11-05T13:15:44.586Z,43.50
2018-11-05T13:18:13.026Z,43.50
2018-11-05T13:20:41.434Z,37.50
2018-11-05T13:23:10.124Z,35.80
2018-11-05T13:25:38.780Z,37.20
2018-11-05T13:28:07.425Z,36.00
2018-11-05T13:30:35.844Z,35.40
2018-11-05T13:33:04.498Z,35.50
2018-11-05T13:35:32.941Z,30.40
2018-11-05T13:38:01.923Z,30.90
2018-11-05T13:40:30.427Z,32.20
2018-11-05T13:42:58.981Z,32.00
2018-11-05T13:45:27.663Z,31.40
2018-11-05T13:47:56.797Z,29.80
2018-11-05T13:50:25.078Z,29.30
2018-11-05T13:52:53.364Z,29.20
2018-11-05T13:55:22.460Z,31.00
2018-11-05T13:57:51.085Z,32.90
2018-11-05T14:00:20.776Z,29.90
2018-11-05T14:02:49.896Z,30.90
2018-11-05T14:05:18.662Z,28.70
2018-11-05T14:07:47.562Z,28.90
2018-11-05T14:10:18.961Z,30.60
2018-11-05T14:12:47.960Z,32.20
2018-11-05T14:15:16.438Z,33.20
2018-11-05T14:17:45.469Z,32.00
2018-11-05T14:20:15.024Z,32.60
2018-11-05T14:22:43.655Z,33.80
2018-11-05T14:25:15.435Z,34.40
2018-11-05T14:27:45.584Z,35.10
2018-11-05T14:30:14.093Z,35.60
2018-11-05T14:32:44.782Z,36.10
2018-11-05T14:35:13.829Z,36.00
2018-11-05T14:37:42.931Z,36.20
2018-11-05T14:40:13.188Z,36.40
2018-11-05T14:42:41.728Z,35.90
2018-11-05T14:45:13.012Z,34.10
2018-11-05T14:47:42.664Z,34.90
2018-11-05T14:50:14.326Z,35.80
2018-11-05T14:52:43.182Z,37.10
2018-11-05T14:55:14.227Z,38.50
2018-11-05T14:57:43.460Z,36.80
2018-11-05T15:00:15.441Z,34.40
2018-11-05T15:02:44.614Z,32.30
2018-11-05T15:05:13.844Z,31.70
2018-11-05T15:07:43.343Z,32.50
2018-11-05T15:10:15.593Z,34.10
2018-11-05T15:12:44.581Z,38.00
2018-11-05T15:15:14.057Z,41.30
2018-11-05T15:17:44.446Z,47.00
2018-11-05T15:20:21.724Z,49.30
2018-11-05T15:22:52.464Z,50.00
2018-11-05T15:25:23.979Z,52.20
2018-11-05T15:27:55.871Z,53.90
2018-11-05T15:30:26.203Z,55.20
2018-11-05T15:32:57.125Z,56.60
2018-11-05T15:35:28.056Z,57.60
2018-11-05T15:37:59.095Z,58.50
2018-11-05T15:40:29.869Z,59.10
2018-11-05T15:43:00.588Z,60.50
2018-11-05T15:45:31.955Z,60.40
2018-11-05T15:48:02.978Z,61.10
2018-11-05T15:50:36.319Z,61.80
2018-11-05T15:53:22.534Z,62.30
2018-11-05T15:55:55.636Z,63.40
2018-11-05T15:58:26.150Z,63.10
2018-11-05T16:00:57.387Z,63.30
2018-11-05T16:03:28.390Z,64.30
2018-11-05T16:06:00.807Z,64.70
2018-11-05T16:11:08.870Z,65.10
2018-11-05T16:13:43.113Z,66.30
2018-11-05T16:16:32.246Z,67.00
2018-11-05T16:19:13.033Z,67.90
2018-11-05T16:21:56.897Z,68.30
2018-11-05T16:24:43.613Z,68.80
2018-11-05T16:27:23.137Z,69.30
2018-11-05T16:29:55.429Z,69.90
2018-11-05T16:32:27.866Z,69.30
2018-11-05T16:35:01.497Z,70.80
2018-11-05T16:37:33.847Z,69.80
2018-11-05T16:40:06.617Z,69.90
2018-11-05T16:42:38.847Z,70.10
2018-11-05T16:45:10.757Z,70.90
2018-11-05T16:47:48.461Z,71.40
2018-11-05T16:50:25.034Z,71.60
2018-11-05T16:52:56.164Z,71.60
2018-11-05T16:55:27.792Z,72.40
2018-11-05T16:57:58.947Z,71.90
2018-11-05T17:00:30.107Z,72.60
2018-11-05T17:03:01.823Z,72.70
2018-11-05T17:05:34.455Z,73.40
2018-11-05T17:08:06.914Z,73.90
2018-11-05T17:10:38.255Z,74.30
2018-11-05T17:13:10.398Z,74.80
2018-11-05T17:15:49.136Z,75.20
2018-11-05T17:18:20.708Z,75.50
2018-11-05T17:20:51.935Z,74.70
2018-11-05T17:23:22.390Z,74.90
2018-11-05T17:25:57.862Z,75.40
2018-11-05T17:28:29.954Z,75.60
2018-11-05T17:31:01.459Z,76.60
2018-11-05T17:33:31.977Z,76.40
2018-11-05T17:36:04.088Z,76.60
2018-11-05T17:38:35.641Z,77.10
2018-11-05T17:41:08.621Z,77.20
2018-11-05T17:43:40.435Z,77.30
2018-11-05T17:46:11.932Z,77.10
2018-11-05T17:48:42.800Z,77.10
2018-11-05T17:51:21.784Z,77.10
2018-11-05T17:53:53.288Z,78.10
2018-11-05T17:56:24.637Z,78.10
2018-11-05T17:58:56.614Z,78.00
2018-11-05T18:01:29.829Z,78.30
2018-11-05T18:04:02.714Z,78.60
2018-11-05T18:06:35.429Z,79.10
2018-11-05T18:09:14.653Z,79.20
2018-11-05T18:11:46.989Z,79.70
2018-11-05T18:14:19.064Z,80.30
2018-11-05T18:16:50.930Z,80.40
2018-11-05T18:19:22.729Z,80.00
2018-11-05T18:24:26.243Z,81.10
2018-11-05T18:30:50.506Z,81.70
2018-11-05T18:33:21.895Z,81.70
2018-11-05T18:35:53.407Z,81.70
2018-11-05T18:38:23.868Z,81.00
2018-11-05T18:40:55.359Z,80.90
2018-11-05T18:43:25.961Z,81.50
2018-11-05T18:45:56.275Z,82.20
2018-11-05T18:48:25.517Z,82.50
2018-11-05T18:50:56.911Z,81.90
2018-11-05T18:53:28.224Z,81.90
2018-11-05T18:55:59.380Z,82.40
2018-11-05T18:58:30.613Z,83.00
2018-11-05T19:01:01.820Z,83.40
2018-11-05T19:03:32.657Z,83.20
2018-11-05T19:06:04.045Z,83.90
2018-11-05T19:08:33.661Z,83.20
2018-11-05T19:11:02.560Z,83.70
2018-11-05T19:13:31.627Z,84.20
2018-11-05T19:16:01.341Z,84.10
2018-11-05T19:18:30.158Z,84.30
2018-11-05T19:20:58.949Z,84.50
2018-11-05T19:23:27.432Z,84.80
2018-11-05T19:25:55.940Z,85.40
2018-11-05T19:28:24.417Z,85.50
2018-11-05T19:30:52.839Z,85.10
2018-11-05T19:33:22.326Z,85.50
2018-11-05T19:35:51.612Z,85.90
2018-11-05T19:38:20.127Z,85.70
2018-11-05T19:40:48.642Z,84.10
2018-11-05T19:43:17.822Z,84.50
2018-11-05T19:45:46.284Z,84.50
2018-11-05T19:48:17.055Z,83.40
2018-11-05T19:50:45.524Z,84.00
2018-11-05T19:53:14.229Z,85.70
2018-11-05T19:55:43.818Z,86.50
2018-11-05T19:58:13.085Z,86.40
2018-11-05T20:00:42.123Z,87.00
2018-11-05T20:03:10.889Z,87.50
2018-11-05T20:05:39.522Z,88.20
2018-11-05T20:08:07.968Z,89.90
2018-11-05T20:10:36.536Z,89.50
2018-11-05T20:13:05.421Z,90.00
2018-11-05T20:15:34.205Z,87.80
2018-11-05T20:18:03.708Z,89.50
2018-11-05T20:20:32.478Z,90.00
2018-11-05T20:23:01.347Z,89.90
2018-11-05T20:25:29.787Z,87.90
2018-11-05T20:27:58.422Z,87.90
2018-11-05T20:30:27.739Z,88.50
2018-11-05T20:32:57.294Z,86.80
2018-11-05T20:35:25.678Z,84.30
2018-11-05T20:37:54.705Z,84.90
2018-11-05T20:40:23.599Z,85.30
2018-11-05T20:42:52.734Z,84.90
2018-11-05T20:45:22.264Z,85.30
2018-11-05T20:47:50.784Z,87.20
2018-11-05T20:50:19.317Z,86.10
2018-11-05T20:52:48.490Z,86.60
2018-11-05T20:55:20.269Z,88.10
2018-11-05T20:57:48.852Z,90.00
2018-11-05T21:00:19.226Z,90.00
2018-11-05T21:02:47.755Z,88.20
2018-11-05T21:05:16.253Z,88.70
2018-11-05T21:07:44.983Z,89.70
2018-11-05T21:10:14.294Z,89.70
2018-11-05T21:12:43.355Z,89.80
2018-11-05T21:15:23.707Z,88.80
2018-11-05T21:17:52.901Z,89.40
2018-11-05T21:20:21.336Z,89.70
2018-11-05T21:22:50.683Z,87.80
2018-11-05T21:25:19.915Z,88.30
2018-11-05T21:27:48.387Z,86.90
2018-11-05T21:30:19.196Z,85.40
2018-11-05T21:32:47.760Z,87.20
2018-11-05T21:35:17.653Z,86.90
2018-11-05T21:37:47.509Z,85.80
2018-11-05T21:40:17.444Z,86.30
2018-11-05T21:42:45.911Z,86.50
2018-11-05T21:45:15.326Z,87.20
2018-11-05T21:47:44.514Z,86.70
2018-11-05T21:50:14.812Z,88.50
2018-11-05T21:52:43.966Z,89.00
2018-11-05T21:55:12.651Z,89.30
2018-11-05T21:57:42.296Z,89.60
2018-11-05T22:00:18.075Z,88.10
2018-11-05T22:02:57.763Z,86.60
2018-11-05T22:05:26.228Z,85.70
2018-11-05T22:07:54.681Z,86.50
2018-11-05T22:10:23.755Z,87.90
2018-11-05T22:12:52.287Z,89.90
2018-11-05T22:15:20.976Z,87.20
2018-11-05T22:17:49.399Z,86.90
2018-11-05T22:22:46.321Z,87.10
2018-11-05T22:25:14.846Z,87.60
2018-11-05T22:27:43.520Z,87.00
2018-11-05T22:30:12.792Z,87.60
2018-11-05T22:32:47.907Z,86.20
2018-11-05T22:37:45.204Z,87.70
2018-11-05T22:40:14.504Z,88.80
2018-11-05T22:42:43.917Z,89.30
2018-11-05T22:45:14.186Z,88.30
2018-11-05T22:47:43.428Z,90.20
2018-11-05T22:50:11.965Z,90.50
2018-11-05T22:52:41.661Z,88.50
2018-11-05T22:55:11.594Z,89.30
2018-11-05T22:57:40.295Z,89.70
2018-11-05T23:01:17.689Z,90.00
2018-11-05T23:03:46.408Z,88.40
2018-11-05T23:06:14.915Z,89.10
2018-11-05T23:08:43.661Z,88.80
2018-11-05T23:11:13.253Z,88.70
2018-11-05T23:13:41.643Z,86.80
2018-11-05T23:16:10.308Z,86.90
2018-11-05T23:18:38.692Z,87.60
2018-11-05T23:21:07.402Z,88.90
2018-11-05T23:23:35.868Z,87.20
2018-11-05T23:26:05.167Z,87.80
2018-11-05T23:28:33.629Z,84.30
2018-11-05T23:31:01.964Z,83.10
2018-11-05T23:33:30.750Z,83.50
2018-11-05T23:35:59.132Z,85.70
2018-11-05T23:38:27.981Z,89.40
2018-11-05T23:40:56.497Z,88.90
2018-11-05T23:43:24.956Z,89.70
2018-11-05T23:45:53.504Z,90.90
2018-11-05T23:48:22.333Z,89.60
2018-11-05T23:50:51.035Z,90.10
2018-11-05T23:53:19.698Z,90.40
2018-11-05T23:55:48.786Z,87.50
2018-11-05T23:58:17.241Z,88.70
